Terminal Aerodrome Forecast
Issued by NWS Louisville, KY

Home | Current Version | Previous Version | Text Only | Print | Product List | Glossary On
Versions: 1 2 3 4 5 6 7 8 9 10 11 12 13 14 15 16 17
481
FTUS43 KLMK 272324
TAFBWG
TAF
KBWG 272324Z 2800/2824 18006KT 4SM -TSRA BR BKN035CB
      TEMPO 2800/2802 2SM TSRA BKN015CB
     FM280300 19005KT P6SM VCSH BKN025
     FM280600 21005KT P6SM BKN015
     FM280900 22004KT 3SM BR BKN007
     FM281400 22008KT 5SM BR BKN015
     FM281900 26013G20KT P6SM SCT025=

USA.gov is the U.S. government's official web portal to all federal, state and local government web resources and services.